sensor_id;sensor_type;location;lat;lon;timestamp;temperature;humidity
67893;DHT22;54688;52.376;16.744;2023-02-28T00:02:28;-2.5;74.4
67893;DHT22;54688;52.376;16.744;2023-02-28T00:05:31;-2.5;74.7
67893;DHT22;54688;52.376;16.744;2023-02-28T00:08:33;-2.5;75.1
67893;DHT22;54688;52.376;16.744;2023-02-28T00:11:35;-2.5;75.4
67893;DHT22;54688;52.376;16.744;2023-02-28T00:14:37;-2.6;75.8
67893;DHT22;54688;52.376;16.744;2023-02-28T00:17:39;-2.6;76.3
67893;DHT22;54688;52.376;16.744;2023-02-28T00:20:42;-2.6;75.4
67893;DHT22;54688;52.376;16.744;2023-02-28T00:23:45;-2.6;75.4
67893;DHT22;54688;52.376;16.744;2023-02-28T00:26:47;-2.7;75.4
67893;DHT22;54688;52.376;16.744;2023-02-28T00:29:49;-2.7;75.7
67893;DHT22;54688;52.376;16.744;2023-02-28T00:32:52;-2.7;75.3
67893;DHT22;54688;52.376;16.744;2023-02-28T00:36:01;-2.7;75.2
67893;DHT22;54688;52.376;16.744;2023-02-28T00:39:04;-2.7;75.6
67893;DHT22;54688;52.376;16.744;2023-02-28T00:42:07;-2.7;76
67893;DHT22;54688;52.376;16.744;2023-02-28T00:45:10;-2.7;76.3
67893;DHT22;54688;52.376;16.744;2023-02-28T00:48:12;-2.7;76.1
67893;DHT22;54688;52.376;16.744;2023-02-28T00:51:14;-2.8;76
67893;DHT22;54688;52.376;16.744;2023-02-28T00:54:17;-2.7;76
67893;DHT22;54688;52.376;16.744;2023-02-28T00:57:19;-2.7;76
67893;DHT22;54688;52.376;16.744;2023-02-28T01:00:22;-2.7;75.7
67893;DHT22;54688;52.376;16.744;2023-02-28T01:03:24;-2.8;75.5
67893;DHT22;54688;52.376;16.744;2023-02-28T01:06:26;-2.9;75.3
67893;DHT22;54688;52.376;16.744;2023-02-28T01:09:28;-2.9;75.5
67893;DHT22;54688;52.376;16.744;2023-02-28T01:12:31;-2.9;76
67893;DHT22;54688;52.376;16.744;2023-02-28T01:15:33;-2.9;76.3
67893;DHT22;54688;52.376;16.744;2023-02-28T01:18:36;-3;76.5
67893;DHT22;54688;52.376;16.744;2023-02-28T01:21:39;-3;76.3
67893;DHT22;54688;52.376;16.744;2023-02-28T01:24:41;-3;75.9
67893;DHT22;54688;52.376;16.744;2023-02-28T01:27:43;-3;75.9
67893;DHT22;54688;52.376;16.744;2023-02-28T01:30:47;-3.1;75.6
67893;DHT22;54688;52.376;16.744;2023-02-28T01:33:49;-3.1;75.9
67893;DHT22;54688;52.376;16.744;2023-02-28T01:36:52;-3.2;75.6
67893;DHT22;54688;52.376;16.744;2023-02-28T01:39:54;-3.2;75.9
67893;DHT22;54688;52.376;16.744;2023-02-28T01:42:56;-3.3;76.2
67893;DHT22;54688;52.376;16.744;2023-02-28T01:45:58;-3.3;76.3
67893;DHT22;54688;52.376;16.744;2023-02-28T01:49:02;-3.4;76.4
67893;DHT22;54688;52.376;16.744;2023-02-28T01:52:08;-3.4;76.4
67893;DHT22;54688;52.376;16.744;2023-02-28T01:55:13;-3.4;76.3
67893;DHT22;54688;52.376;16.744;2023-02-28T01:58:18;-3.5;76.4
67893;DHT22;54688;52.376;16.744;2023-02-28T02:01:21;-3.5;76.7
67893;DHT22;54688;52.376;16.744;2023-02-28T02:04:25;-3.6;76.7
67893;DHT22;54688;52.376;16.744;2023-02-28T02:07:33;-3.5;76.7
67893;DHT22;54688;52.376;16.744;2023-02-28T02:10:40;-3.6;76.5
67893;DHT22;54688;52.376;16.744;2023-02-28T02:13:55;-3.6;76.4
67893;DHT22;54688;52.376;16.744;2023-02-28T02:17:11;-3.6;76.4
67893;DHT22;54688;52.376;16.744;2023-02-28T02:20:32;-3.7;76.5
67893;DHT22;54688;52.376;16.744;2023-02-28T02:25:55;-3.7;76.9
67893;DHT22;54688;52.376;16.744;2023-02-28T02:29:05;-3.7;77.2
67893;DHT22;54688;52.376;16.744;2023-02-28T02:32:28;-3.8;77.1
67893;DHT22;54688;52.376;16.744;2023-02-28T02:35:47;-3.8;76.9
67893;DHT22;54688;52.376;16.744;2023-02-28T02:41:53;-4;76.5
67893;DHT22;54688;52.376;16.744;2023-02-28T02:44:57;-4;76.9
67893;DHT22;54688;52.376;16.744;2023-02-28T02:48:04;-4.1;76.9
67893;DHT22;54688;52.376;16.744;2023-02-28T02:51:11;-4.1;77.3
67893;DHT22;54688;52.376;16.744;2023-02-28T02:57:16;-4.1;77.9
67893;DHT22;54688;52.376;16.744;2023-02-28T03:00:22;-4.2;78.1
67893;DHT22;54688;52.376;16.744;2023-02-28T03:03:29;-4.1;78.4
67893;DHT22;54688;52.376;16.744;2023-02-28T03:06:34;-4.1;78.1
67893;DHT22;54688;52.376;16.744;2023-02-28T03:09:36;-4.2;78.1
67893;DHT22;54688;52.376;16.744;2023-02-28T03:12:40;-4.2;78.1
67893;DHT22;54688;52.376;16.744;2023-02-28T03:15:52;-4.3;77.7
67893;DHT22;54688;52.376;16.744;2023-02-28T03:19:11;-4.3;77.5
67893;DHT22;54688;52.376;16.744;2023-02-28T03:22:33;-4.4;77.5
67893;DHT22;54688;52.376;16.744;2023-02-28T03:25:48;-4.4;77.3
67893;DHT22;54688;52.376;16.744;2023-02-28T03:28:59;-4.5;77.5
67893;DHT22;54688;52.376;16.744;2023-02-28T03:32:08;-4.5;78
67893;DHT22;54688;52.376;16.744;2023-02-28T03:35:16;-4.6;78
67893;DHT22;54688;52.376;16.744;2023-02-28T03:38:23;-4.6;78
67893;DHT22;54688;52.376;16.744;2023-02-28T03:41:31;-4.6;78.7
67893;DHT22;54688;52.376;16.744;2023-02-28T03:44:38;-4.5;78.9
67893;DHT22;54688;52.376;16.744;2023-02-28T03:50:43;-4.6;78.3
67893;DHT22;54688;52.376;16.744;2023-02-28T03:53:48;-4.6;78.2
67893;DHT22;54688;52.376;16.744;2023-02-28T03:56:56;-4.6;78.1
67893;DHT22;54688;52.376;16.744;2023-02-28T04:00:08;-4.7;78
67893;DHT22;54688;52.376;16.744;2023-02-28T04:03:13;-4.8;78.6
67893;DHT22;54688;52.376;16.744;2023-02-28T04:06:16;-4.8;77.7
67893;DHT22;54688;52.376;16.744;2023-02-28T04:09:21;-4.9;77.8
67893;DHT22;54688;52.376;16.744;2023-02-28T04:12:24;-4.9;78
67893;DHT22;54688;52.376;16.744;2023-02-28T04:15:26;-4.9;77.3
67893;DHT22;54688;52.376;16.744;2023-02-28T04:18:28;-5;77.7
67893;DHT22;54688;52.376;16.744;2023-02-28T04:21:31;-5.1;77.9
67893;DHT22;54688;52.376;16.744;2023-02-28T04:24:35;-5.1;77.8
67893;DHT22;54688;52.376;16.744;2023-02-28T04:27:38;-5.2;77.4
67893;DHT22;54688;52.376;16.744;2023-02-28T04:30:40;-5.2;77.8
67893;DHT22;54688;52.376;16.744;2023-02-28T04:33:42;-5.2;78.5
67893;DHT22;54688;52.376;16.744;2023-02-28T04:36:45;-5.2;79.2
67893;DHT22;54688;52.376;16.744;2023-02-28T04:39:47;-5.2;79.8
67893;DHT22;54688;52.376;16.744;2023-02-28T04:42:50;-5.1;80.1
67893;DHT22;54688;52.376;16.744;2023-02-28T04:45:52;-5;80.3
67893;DHT22;54688;52.376;16.744;2023-02-28T04:51:53;-5;80.3
67893;DHT22;54688;52.376;16.744;2023-02-28T04:54:55;-4.9;80.1
67893;DHT22;54688;52.376;16.744;2023-02-28T04:57:58;-5;79.7
67893;DHT22;54688;52.376;16.744;2023-02-28T05:01:01;-5;79.6
67893;DHT22;54688;52.376;16.744;2023-02-28T05:04:04;-5;80.1
67893;DHT22;54688;52.376;16.744;2023-02-28T05:07:06;-5;80.2
67893;DHT22;54688;52.376;16.744;2023-02-28T05:10:09;-5;80.1
67893;DHT22;54688;52.376;16.744;2023-02-28T05:13:13;-5;80.4
67893;DHT22;54688;52.376;16.744;2023-02-28T05:16:16;-5;80.8
67893;DHT22;54688;52.376;16.744;2023-02-28T05:19:19;-5;81
67893;DHT22;54688;52.376;16.744;2023-02-28T05:22:22;-4.9;80.9
67893;DHT22;54688;52.376;16.744;2023-02-28T05:25:24;-4.9;80.6
67893;DHT22;54688;52.376;16.744;2023-02-28T05:28:27;-4.9;80.3
67893;DHT22;54688;52.376;16.744;2023-02-28T05:31:29;-4.9;80.2
67893;DHT22;54688;52.376;16.744;2023-02-28T05:34:31;-4.9;80
67893;DHT22;54688;52.376;16.744;2023-02-28T05:37:33;-4.9;79.7
67893;DHT22;54688;52.376;16.744;2023-02-28T05:43:35;-5;79.6
67893;DHT22;54688;52.376;16.744;2023-02-28T05:46:38;-5;79.4
67893;DHT22;54688;52.376;16.744;2023-02-28T05:49:41;-5;79.4
67893;DHT22;54688;52.376;16.744;2023-02-28T05:52:48;-5.1;79.1
67893;DHT22;54688;52.376;16.744;2023-02-28T05:58:49;-5.2;79.3
67893;DHT22;54688;52.376;16.744;2023-02-28T06:01:52;-5.2;78.9
67893;DHT22;54688;52.376;16.744;2023-02-28T06:07:53;-5.3;78.7
67893;DHT22;54688;52.376;16.744;2023-02-28T06:10:54;-5.4;79.1
67893;DHT22;54688;52.376;16.744;2023-02-28T06:13:58;-5.4;78.8
67893;DHT22;54688;52.376;16.744;2023-02-28T06:17:01;-5.3;80.3
67893;DHT22;54688;52.376;16.744;2023-02-28T06:20:05;-5.2;80.3
67893;DHT22;54688;52.376;16.744;2023-02-28T06:23:09;-5.2;80.5
67893;DHT22;54688;52.376;16.744;2023-02-28T06:26:10;-5.2;80.6
67893;DHT22;54688;52.376;16.744;2023-02-28T06:29:13;-5.1;80.9
67893;DHT22;54688;52.376;16.744;2023-02-28T06:32:16;-5.1;81.1
67893;DHT22;54688;52.376;16.744;2023-02-28T06:35:18;-5;80.9
67893;DHT22;54688;52.376;16.744;2023-02-28T06:38:20;-5;81.1
67893;DHT22;54688;52.376;16.744;2023-02-28T06:41:23;-4.9;81
67893;DHT22;54688;52.376;16.744;2023-02-28T06:44:26;-4.8;80.8
67893;DHT22;54688;52.376;16.744;2023-02-28T06:47:30;-4.8;80.3
67893;DHT22;54688;52.376;16.744;2023-02-28T06:50:33;-4.8;80.1
67893;DHT22;54688;52.376;16.744;2023-02-28T06:53:36;-4.8;80.2
67893;DHT22;54688;52.376;16.744;2023-02-28T06:56:38;-4.7;80.4
67893;DHT22;54688;52.376;16.744;2023-02-28T06:59:41;-4.8;80.7
67893;DHT22;54688;52.376;16.744;2023-02-28T07:02:45;-4.7;81.1
67893;DHT22;54688;52.376;16.744;2023-02-28T07:05:47;-4.6;80.9
67893;DHT22;54688;52.376;16.744;2023-02-28T07:08:50;-4.5;81.2
67893;DHT22;54688;52.376;16.744;2023-02-28T07:11:53;-4.5;81.2
67893;DHT22;54688;52.376;16.744;2023-02-28T07:14:55;-4.4;81.3
67893;DHT22;54688;52.376;16.744;2023-02-28T07:17:57;-4.4;81
67893;DHT22;54688;52.376;16.744;2023-02-28T07:21:01;-4.3;81.2
67893;DHT22;54688;52.376;16.744;2023-02-28T07:24:05;-4.2;80.8
67893;DHT22;54688;52.376;16.744;2023-02-28T07:27:07;-4.2;80.2
67893;DHT22;54688;52.376;16.744;2023-02-28T07:30:10;-4.2;80.1
67893;DHT22;54688;52.376;16.744;2023-02-28T07:33:13;-4.2;79.9
67893;DHT22;54688;52.376;16.744;2023-02-28T07:36:16;-4.1;80.1
67893;DHT22;54688;52.376;16.744;2023-02-28T07:39:18;-4.1;80.1
67893;DHT22;54688;52.376;16.744;2023-02-28T07:42:21;-4;80.2
67893;DHT22;54688;52.376;16.744;2023-02-28T07:45:22;-4;80
67893;DHT22;54688;52.376;16.744;2023-02-28T07:51:24;-3.9;79.7
67893;DHT22;54688;52.376;16.744;2023-02-28T07:54:26;-3.9;79.6
67893;DHT22;54688;52.376;16.744;2023-02-28T07:57:28;-3.9;80.2
67893;DHT22;54688;52.376;16.744;2023-02-28T08:00:30;-3.8;80.6
67893;DHT22;54688;52.376;16.744;2023-02-28T08:03:33;-3.7;80.8
67893;DHT22;54688;52.376;16.744;2023-02-28T08:06:36;-3.6;81.2
67893;DHT22;54688;52.376;16.744;2023-02-28T08:09:38;-3.6;80.6
67893;DHT22;54688;52.376;16.744;2023-02-28T08:12:40;-3.5;81
67893;DHT22;54688;52.376;16.744;2023-02-28T08:15:43;-3.4;80.5
67893;DHT22;54688;52.376;16.744;2023-02-28T08:18:45;-3.4;80.2
67893;DHT22;54688;52.376;16.744;2023-02-28T08:21:48;-3.3;80.3
67893;DHT22;54688;52.376;16.744;2023-02-28T08:24:50;-3.3;80
67893;DHT22;54688;52.376;16.744;2023-02-28T08:27:53;-3.3;80
67893;DHT22;54688;52.376;16.744;2023-02-28T08:30:55;-3.2;79.7
67893;DHT22;54688;52.376;16.744;2023-02-28T08:33:57;-3.2;80
67893;DHT22;54688;52.376;16.744;2023-02-28T08:36:59;-3.1;79.8
67893;DHT22;54688;52.376;16.744;2023-02-28T08:40:02;-3.1;80.3
67893;DHT22;54688;52.376;16.744;2023-02-28T08:43:04;-2.9;80.8
67893;DHT22;54688;52.376;16.744;2023-02-28T08:46:08;-2.8;80.7
67893;DHT22;54688;52.376;16.744;2023-02-28T08:49:13;-2.7;80.4
67893;DHT22;54688;52.376;16.744;2023-02-28T08:52:15;-2.6;80
67893;DHT22;54688;52.376;16.744;2023-02-28T08:55:17;-2.5;80.3
67893;DHT22;54688;52.376;16.744;2023-02-28T08:58:20;-2.4;80.3
67893;DHT22;54688;52.376;16.744;2023-02-28T09:01:22;-2.3;80
67893;DHT22;54688;52.376;16.744;2023-02-28T09:04:26;-2.2;80.3
67893;DHT22;54688;52.376;16.744;2023-02-28T09:07:28;-2.1;80.2
67893;DHT22;54688;52.376;16.744;2023-02-28T09:10:30;-2.1;80
67893;DHT22;54688;52.376;16.744;2023-02-28T09:13:32;-2;79.6
67893;DHT22;54688;52.376;16.744;2023-02-28T09:19:34;-1.9;79.1
67893;DHT22;54688;52.376;16.744;2023-02-28T09:22:36;-1.8;79.5
67893;DHT22;54688;52.376;16.744;2023-02-28T09:28:38;-1.6;79.2
67893;DHT22;54688;52.376;16.744;2023-02-28T09:31:40;-1.5;78.7
67893;DHT22;54688;52.376;16.744;2023-02-28T09:34:43;-1.5;78.4
67893;DHT22;54688;52.376;16.744;2023-02-28T09:37:45;-1.4;78.6
67893;DHT22;54688;52.376;16.744;2023-02-28T09:40:49;-1.3;78.1
67893;DHT22;54688;52.376;16.744;2023-02-28T09:43:53;-1.3;77.8
67893;DHT22;54688;52.376;16.744;2023-02-28T09:46:59;-1.2;78
67893;DHT22;54688;52.376;16.744;2023-02-28T09:50:11;-1.2;77.6
67893;DHT22;54688;52.376;16.744;2023-02-28T09:53:21;-1.1;77.2
67893;DHT22;54688;52.376;16.744;2023-02-28T09:56:28;-1;76.3
67893;DHT22;54688;52.376;16.744;2023-02-28T09:59:38;-0.9;75.9
67893;DHT22;54688;52.376;16.744;2023-02-28T10:02:47;-0.8;75.9
67893;DHT22;54688;52.376;16.744;2023-02-28T10:05:58;-0.7;76.1
67893;DHT22;54688;52.376;16.744;2023-02-28T10:09:07;-0.6;75.9
67893;DHT22;54688;52.376;16.744;2023-02-28T10:12:13;-0.4;74
67893;DHT22;54688;52.376;16.744;2023-02-28T10:15:19;-0.3;73.6
67893;DHT22;54688;52.376;16.744;2023-02-28T10:18:26;-0.1;73.8
67893;DHT22;54688;52.376;16.744;2023-02-28T10:21:34;0;71.8
67893;DHT22;54688;52.376;16.744;2023-02-28T10:24:42;0.1;71.5
67893;DHT22;54688;52.376;16.744;2023-02-28T10:27:45;0.2;69.6
67893;DHT22;54688;52.376;16.744;2023-02-28T10:30:48;0.2;68.4
67893;DHT22;54688;52.376;16.744;2023-02-28T10:33:51;0.3;68.6
67893;DHT22;54688;52.376;16.744;2023-02-28T10:36:53;0.3;68.3
67893;DHT22;54688;52.376;16.744;2023-02-28T10:39:57;0.3;67.9
67893;DHT22;54688;52.376;16.744;2023-02-28T10:43:00;0.4;67.5
67893;DHT22;54688;52.376;16.744;2023-02-28T10:46:04;0.5;67.7
67893;DHT22;54688;52.376;16.744;2023-02-28T10:49:15;0.5;66.4
67893;DHT22;54688;52.376;16.744;2023-02-28T10:52:37;0.5;64.1
67893;DHT22;54688;52.376;16.744;2023-02-28T10:55:41;0.6;64.3
67893;DHT22;54688;52.376;16.744;2023-02-28T10:58:48;0.7;64.4
67893;DHT22;54688;52.376;16.744;2023-02-28T11:01:52;0.7;64.2
67893;DHT22;54688;52.376;16.744;2023-02-28T11:04:54;0.8;63.4
67893;DHT22;54688;52.376;16.744;2023-02-28T11:08:05;0.8;62.1
67893;DHT22;54688;52.376;16.744;2023-02-28T11:11:11;0.9;61.7
67893;DHT22;54688;52.376;16.744;2023-02-28T11:14:17;0.9;62.7
67893;DHT22;54688;52.376;16.744;2023-02-28T11:17:23;1;62
67893;DHT22;54688;52.376;16.744;2023-02-28T11:20:28;1;61.8
67893;DHT22;54688;52.376;16.744;2023-02-28T11:23:32;1.1;62.1
67893;DHT22;54688;52.376;16.744;2023-02-28T11:26:39;1.1;62.3
67893;DHT22;54688;52.376;16.744;2023-02-28T11:29:46;1.2;62.9
67893;DHT22;54688;52.376;16.744;2023-02-28T11:32:49;1.3;62.5
67893;DHT22;54688;52.376;16.744;2023-02-28T11:35:52;1.4;62.3
67893;DHT22;54688;52.376;16.744;2023-02-28T11:38:56;1.5;62.3
67893;DHT22;54688;52.376;16.744;2023-02-28T11:42:06;1.6;61.3
67893;DHT22;54688;52.376;16.744;2023-02-28T11:45:19;1.7;60.7
67893;DHT22;54688;52.376;16.744;2023-02-28T11:48:32;1.8;59
67893;DHT22;54688;52.376;16.744;2023-02-28T11:51:41;1.7;58.7
67893;DHT22;54688;52.376;16.744;2023-02-28T11:54:54;1.8;59.8
67893;DHT22;54688;52.376;16.744;2023-02-28T11:58:05;1.8;59.1
67893;DHT22;54688;52.376;16.744;2023-02-28T12:01:24;1.9;60.1
67893;DHT22;54688;52.376;16.744;2023-02-28T12:04:34;1.9;59.4
67893;DHT22;54688;52.376;16.744;2023-02-28T12:07:50;2;59.3
67893;DHT22;54688;52.376;16.744;2023-02-28T12:11:06;2.1;59.9
67893;DHT22;54688;52.376;16.744;2023-02-28T12:14:21;2.2;59.5
67893;DHT22;54688;52.376;16.744;2023-02-28T12:20:34;2.4;59.3
67893;DHT22;54688;52.376;16.744;2023-02-28T12:23:49;2.5;57.7
67893;DHT22;54688;52.376;16.744;2023-02-28T12:27:02;2.6;58.3
67893;DHT22;54688;52.376;16.744;2023-02-28T12:30:13;2.6;58.4
67893;DHT22;54688;52.376;16.744;2023-02-28T12:33:20;2.7;56.3
67893;DHT22;54688;52.376;16.744;2023-02-28T12:36:27;2.7;55.8
67893;DHT22;54688;52.376;16.744;2023-02-28T12:39:29;2.8;55.1
67893;DHT22;54688;52.376;16.744;2023-02-28T12:42:36;2.8;55.7
67893;DHT22;54688;52.376;16.744;2023-02-28T12:45:44;2.9;55.9
67893;DHT22;54688;52.376;16.744;2023-02-28T12:48:50;3;55.6
67893;DHT22;54688;52.376;16.744;2023-02-28T12:51:57;3;51.2
67893;DHT22;54688;52.376;16.744;2023-02-28T12:55:02;3;50.1
67893;DHT22;54688;52.376;16.744;2023-02-28T12:58:11;3.1;49.9
67893;DHT22;54688;52.376;16.744;2023-02-28T13:01:29;3.1;50.9
67893;DHT22;54688;52.376;16.744;2023-02-28T13:04:52;3.1;50.3
67893;DHT22;54688;52.376;16.744;2023-02-28T13:08:15;3.1;51.3
67893;DHT22;54688;52.376;16.744;2023-02-28T13:11:28;3.1;51
67893;DHT22;54688;52.376;16.744;2023-02-28T13:14:35;3.2;51.1
67893;DHT22;54688;52.376;16.744;2023-02-28T13:17:40;3.2;51.1
67893;DHT22;54688;52.376;16.744;2023-02-28T13:20:47;3.3;50.6
67893;DHT22;54688;52.376;16.744;2023-02-28T13:23:58;3.3;50
67893;DHT22;54688;52.376;16.744;2023-02-28T13:27:11;3.4;49.8
67893;DHT22;54688;52.376;16.744;2023-02-28T13:31:29;3.5;51.1
67893;DHT22;54688;52.376;16.744;2023-02-28T13:34:32;3.6;50.8
67893;DHT22;54688;52.376;16.744;2023-02-28T13:37:35;3.8;51.4
67893;DHT22;54688;52.376;16.744;2023-02-28T13:40:38;3.9;51.2
67893;DHT22;54688;52.376;16.744;2023-02-28T13:44:12;4.1;51.9
67893;DHT22;54688;52.376;16.744;2023-02-28T13:47:23;4.2;49.6
67893;DHT22;54688;52.376;16.744;2023-02-28T13:50:32;4.2;49.7
67893;DHT22;54688;52.376;16.744;2023-02-28T13:53:54;4.3;49.5
67893;DHT22;54688;52.376;16.744;2023-02-28T13:57:09;4.3;48.4
67893;DHT22;54688;52.376;16.744;2023-02-28T14:00:22;4.5;48.4
67893;DHT22;54688;52.376;16.744;2023-02-28T14:03:38;4.5;47.3
67893;DHT22;54688;52.376;16.744;2023-02-28T14:06:49;4.6;46.8
67893;DHT22;54688;52.376;16.744;2023-02-28T14:09:56;4.7;48.6
67893;DHT22;54688;52.376;16.744;2023-02-28T14:13:02;4.8;48.7
67893;DHT22;54688;52.376;16.744;2023-02-28T14:16:13;5;48.5
67893;DHT22;54688;52.376;16.744;2023-02-28T14:19:19;5.1;46.9
67893;DHT22;54688;52.376;16.744;2023-02-28T14:22:37;5.2;47
67893;DHT22;54688;52.376;16.744;2023-02-28T14:25:47;5.2;47
67893;DHT22;54688;52.376;16.744;2023-02-28T14:29:07;5.3;45.8
67893;DHT22;54688;52.376;16.744;2023-02-28T14:32:22;5.3;46.2
67893;DHT22;54688;52.376;16.744;2023-02-28T14:35:36;5.3;46.7
67893;DHT22;54688;52.376;16.744;2023-02-28T14:38:45;5.3;45.5
67893;DHT22;54688;52.376;16.744;2023-02-28T14:41:50;5.3;45.6
67893;DHT22;54688;52.376;16.744;2023-02-28T14:44:53;5.3;47.4
67893;DHT22;54688;52.376;16.744;2023-02-28T14:47:59;5.4;48.1
67893;DHT22;54688;52.376;16.744;2023-02-28T14:51:03;5.5;48.4
67893;DHT22;54688;52.376;16.744;2023-02-28T14:54:06;5.6;48
67893;DHT22;54688;52.376;16.744;2023-02-28T14:57:19;5.6;47.5
67893;DHT22;54688;52.376;16.744;2023-02-28T15:00:24;5.7;48
67893;DHT22;54688;52.376;16.744;2023-02-28T15:03:29;5.7;46.5
67893;DHT22;54688;52.376;16.744;2023-02-28T15:06:34;5.7;47.4
67893;DHT22;54688;52.376;16.744;2023-02-28T15:09:36;5.8;46
67893;DHT22;54688;52.376;16.744;2023-02-28T15:12:39;5.8;46.4
67893;DHT22;54688;52.376;16.744;2023-02-28T15:15:44;5.7;45.7
67893;DHT22;54688;52.376;16.744;2023-02-28T15:18:52;5.7;46.5
67893;DHT22;54688;52.376;16.744;2023-02-28T15:21:57;5.7;47
67893;DHT22;54688;52.376;16.744;2023-02-28T15:25:01;5.6;46.4
67893;DHT22;54688;52.376;16.744;2023-02-28T15:28:09;5.6;46.8
67893;DHT22;54688;52.376;16.744;2023-02-28T15:31:19;5.6;47.7
67893;DHT22;54688;52.376;16.744;2023-02-28T15:34:26;5.5;47.7
67893;DHT22;54688;52.376;16.744;2023-02-28T15:37:38;5.5;47.6
67893;DHT22;54688;52.376;16.744;2023-02-28T15:40:43;5.4;47.9
67893;DHT22;54688;52.376;16.744;2023-02-28T15:43:46;5.4;48.4
67893;DHT22;54688;52.376;16.744;2023-02-28T15:46:53;5.3;48.3
67893;DHT22;54688;52.376;16.744;2023-02-28T15:49:58;5.3;48.4
67893;DHT22;54688;52.376;16.744;2023-02-28T15:53:03;5.2;49.1
67893;DHT22;54688;52.376;16.744;2023-02-28T15:56:06;5.1;49.5
67893;DHT22;54688;52.376;16.744;2023-02-28T15:59:18;4.9;49.2
67893;DHT22;54688;52.376;16.744;2023-02-28T16:02:30;4.8;50.4
67893;DHT22;54688;52.376;16.744;2023-02-28T16:05:33;4.6;49.7
67893;DHT22;54688;52.376;16.744;2023-02-28T16:08:36;4.5;51
67893;DHT22;54688;52.376;16.744;2023-02-28T16:11:39;4.3;51.1
67893;DHT22;54688;52.376;16.744;2023-02-28T16:14:44;4.1;51.6
67893;DHT22;54688;52.376;16.744;2023-02-28T16:20:46;3.7;52.7
67893;DHT22;54688;52.376;16.744;2023-02-28T16:23:48;3.6;53.2
67893;DHT22;54688;52.376;16.744;2023-02-28T16:26:50;3.4;54.7
67893;DHT22;54688;52.376;16.744;2023-02-28T16:29:56;3.3;54.4
67893;DHT22;54688;52.376;16.744;2023-02-28T16:32:59;3.1;55.1
67893;DHT22;54688;52.376;16.744;2023-02-28T16:36:01;3;55.9
67893;DHT22;54688;52.376;16.744;2023-02-28T16:39:03;2.9;55.5
67893;DHT22;54688;52.376;16.744;2023-02-28T16:42:06;2.7;56.4
67893;DHT22;54688;52.376;16.744;2023-02-28T16:45:14;2.6;58.1
67893;DHT22;54688;52.376;16.744;2023-02-28T16:48:17;2.4;57.3
67893;DHT22;54688;52.376;16.744;2023-02-28T16:54:18;2.2;58.1
67893;DHT22;54688;52.376;16.744;2023-02-28T16:57:21;2.1;58.6
67893;DHT22;54688;52.376;16.744;2023-02-28T17:00:25;1.9;59
67893;DHT22;54688;52.376;16.744;2023-02-28T17:03:29;1.7;59.4
67893;DHT22;54688;52.376;16.744;2023-02-28T17:06:30;1.5;59.7
67893;DHT22;54688;52.376;16.744;2023-02-28T17:09:33;1.3;60
67893;DHT22;54688;52.376;16.744;2023-02-28T17:12:35;1.1;60.3
67893;DHT22;54688;52.376;16.744;2023-02-28T17:15:38;0.9;61.9
67893;DHT22;54688;52.376;16.744;2023-02-28T17:18:40;0.8;62.9
67893;DHT22;54688;52.376;16.744;2023-02-28T17:21:43;0.7;63
67893;DHT22;54688;52.376;16.744;2023-02-28T17:24:46;0.6;64.2
67893;DHT22;54688;52.376;16.744;2023-02-28T17:27:49;0.5;64
67893;DHT22;54688;52.376;16.744;2023-02-28T17:30:51;0.4;64.1
67893;DHT22;54688;52.376;16.744;2023-02-28T17:33:53;0.2;64.5
67893;DHT22;54688;52.376;16.744;2023-02-28T17:36:55;0.2;65.4
67893;DHT22;54688;52.376;16.744;2023-02-28T17:39:57;0.1;65.6
67893;DHT22;54688;52.376;16.744;2023-02-28T17:43:00;0;65.7
67893;DHT22;54688;52.376;16.744;2023-02-28T17:46:02;-0.1;66.3
67893;DHT22;54688;52.376;16.744;2023-02-28T17:49:04;-0.2;66.3
67893;DHT22;54688;52.376;16.744;2023-02-28T17:52:06;-0.3;66.7
67893;DHT22;54688;52.376;16.744;2023-02-28T17:55:09;-0.4;66.9
67893;DHT22;54688;52.376;16.744;2023-02-28T17:58:12;-0.5;67.1
67893;DHT22;54688;52.376;16.744;2023-02-28T18:01:14;-0.6;67.3
67893;DHT22;54688;52.376;16.744;2023-02-28T18:04:16;-0.7;67.1
67893;DHT22;54688;52.376;16.744;2023-02-28T18:07:18;-0.8;67.5
67893;DHT22;54688;52.376;16.744;2023-02-28T18:10:24;-0.9;68.4
67893;DHT22;54688;52.376;16.744;2023-02-28T18:13:26;-1;68.9
67893;DHT22;54688;52.376;16.744;2023-02-28T18:16:28;-1;68.3
67893;DHT22;54688;52.376;16.744;2023-02-28T18:19:31;-1.2;68.5
67893;DHT22;54688;52.376;16.744;2023-02-28T18:22:33;-1.2;68.8
67893;DHT22;54688;52.376;16.744;2023-02-28T18:25:35;-1.3;69.5
67893;DHT22;54688;52.376;16.744;2023-02-28T18:28:37;-1.4;70
67893;DHT22;54688;52.376;16.744;2023-02-28T18:31:40;-1.4;70
67893;DHT22;54688;52.376;16.744;2023-02-28T18:34:42;-1.5;69.8
67893;DHT22;54688;52.376;16.744;2023-02-28T18:37:44;-1.5;69.9
67893;DHT22;54688;52.376;16.744;2023-02-28T18:40:50;-1.6;70.1
67893;DHT22;54688;52.376;16.744;2023-02-28T18:43:53;-1.6;70.5
67893;DHT22;54688;52.376;16.744;2023-02-28T18:46:55;-1.7;70.6
67893;DHT22;54688;52.376;16.744;2023-02-28T18:49:58;-1.7;70.7
67893;DHT22;54688;52.376;16.744;2023-02-28T18:52:59;-1.8;71
67893;DHT22;54688;52.376;16.744;2023-02-28T18:56:01;-1.8;71
67893;DHT22;54688;52.376;16.744;2023-02-28T18:59:04;-1.9;71.3
67893;DHT22;54688;52.376;16.744;2023-02-28T19:05:06;-1.9;72.6
67893;DHT22;54688;52.376;16.744;2023-02-28T19:08:08;-1.9;73.2
67893;DHT22;54688;52.376;16.744;2023-02-28T19:11:11;-1.9;73.1
67893;DHT22;54688;52.376;16.744;2023-02-28T19:14:15;-2;73.2
67893;DHT22;54688;52.376;16.744;2023-02-28T19:17:18;-2;73.3
67893;DHT22;54688;52.376;16.744;2023-02-28T19:20:20;-2;73.4
67893;DHT22;54688;52.376;16.744;2023-02-28T19:23:22;-2;73.3
67893;DHT22;54688;52.376;16.744;2023-02-28T19:26:25;-2.1;73.2
67893;DHT22;54688;52.376;16.744;2023-02-28T19:29:28;-2.1;73.4
67893;DHT22;54688;52.376;16.744;2023-02-28T19:32:30;-2.1;73.5
67893;DHT22;54688;52.376;16.744;2023-02-28T19:35:32;-2.1;73.5
67893;DHT22;54688;52.376;16.744;2023-02-28T19:38:34;-2.2;73.6
67893;DHT22;54688;52.376;16.744;2023-02-28T19:41:37;-2.2;73.7
67893;DHT22;54688;52.376;16.744;2023-02-28T19:44:39;-2.2;74.1
67893;DHT22;54688;52.376;16.744;2023-02-28T19:47:42;-2.2;74.1
67893;DHT22;54688;52.376;16.744;2023-02-28T19:50:44;-2.3;74.2
67893;DHT22;54688;52.376;16.744;2023-02-28T19:53:46;-2.3;74.2
67893;DHT22;54688;52.376;16.744;2023-02-28T19:56:49;-2.3;73.6
67893;DHT22;54688;52.376;16.744;2023-02-28T19:59:51;-2.3;73.3
67893;DHT22;54688;52.376;16.744;2023-02-28T20:02:52;-2.4;73.4
67893;DHT22;54688;52.376;16.744;2023-02-28T20:08:54;-2.5;74.5
67893;DHT22;54688;52.376;16.744;2023-02-28T20:11:57;-2.6;74.1
67893;DHT22;54688;52.376;16.744;2023-02-28T20:17:57;-2.6;74.1
67893;DHT22;54688;52.376;16.744;2023-02-28T20:20:59;-2.6;73.8
67893;DHT22;54688;52.376;16.744;2023-02-28T20:24:01;-2.7;73.9
67893;DHT22;54688;52.376;16.744;2023-02-28T20:27:04;-2.7;74.1
67893;DHT22;54688;52.376;16.744;2023-02-28T20:30:07;-2.8;74
67893;DHT22;54688;52.376;16.744;2023-02-28T20:33:10;-2.8;74.4
67893;DHT22;54688;52.376;16.744;2023-02-28T20:36:11;-2.8;74.6
67893;DHT22;54688;52.376;16.744;2023-02-28T20:39:13;-2.8;74.4
67893;DHT22;54688;52.376;16.744;2023-02-28T20:42:16;-2.9;74.7
67893;DHT22;54688;52.376;16.744;2023-02-28T20:45:18;-2.9;74.9
67893;DHT22;54688;52.376;16.744;2023-02-28T20:48:20;-2.9;75.9
67893;DHT22;54688;52.376;16.744;2023-02-28T20:51:23;-2.9;75.1
67893;DHT22;54688;52.376;16.744;2023-02-28T20:54:25;-3;75
67893;DHT22;54688;52.376;16.744;2023-02-28T20:57:27;-3;74.7